createdAt,value
2022-11-27T00:01:34.725Z,76.78
2022-11-27T00:04:03.296Z,76.77
2022-11-27T00:06:31.749Z,76.92
2022-11-27T00:09:03.727Z,76.91
2022-11-27T00:11:32.376Z,76.83
2022-11-27T00:14:00.789Z,76.94
2022-11-27T00:16:29.066Z,77.04
2022-11-27T00:18:57.044Z,77.05
2022-11-27T00:21:31.151Z,77.21
2022-11-27T00:24:01.850Z,77.01
2022-11-27T00:26:35.979Z,76.87
2022-11-27T00:29:01.759Z,76.78
2022-11-27T00:31:32.807Z,76.64
2022-11-27T00:34:03.612Z,76.57
2022-11-27T00:36:32.939Z,76.55
2022-11-27T00:39:01.347Z,76.44
2022-11-27T00:41:30.378Z,76.40
2022-11-27T00:43:58.293Z,76.35
2022-11-27T00:46:29.801Z,76.33
2022-11-27T00:48:59.595Z,76.33
2022-11-27T00:51:28.879Z,76.37
2022-11-27T00:53:57.276Z,76.34
2022-11-27T00:56:28.781Z,76.41
2022-11-27T00:58:57.625Z,76.52
2022-11-27T01:01:33.969Z,76.67
2022-11-27T01:04:06.452Z,76.63
2022-11-27T01:06:37.486Z,76.53
2022-11-27T01:09:07.599Z,76.58
2022-11-27T01:11:39.600Z,76.54
2022-11-27T01:14:20.480Z,76.58
2022-11-27T01:16:49.105Z,76.58
2022-11-27T01:19:19.941Z,76.65
2022-11-27T01:21:48.737Z,76.65
2022-11-27T01:24:17.899Z,76.71
2022-11-27T01:26:50.238Z,76.74
2022-11-27T01:29:19.510Z,76.80
2022-11-27T01:31:50.505Z,76.89
2022-11-27T01:34:22.145Z,76.93
2022-11-27T01:36:50.685Z,76.97
2022-11-27T01:39:23.115Z,76.98
2022-11-27T01:41:54.680Z,77.05
2022-11-27T01:44:34.506Z,77.00
2022-11-27T01:47:12.095Z,77.05
2022-11-27T01:49:50.238Z,77.22
2022-11-27T01:52:32.306Z,77.20
2022-11-27T01:55:07.908Z,77.27
2022-11-27T01:57:49.011Z,77.27
2022-11-27T02:00:18.601Z,77.31
2022-11-27T02:02:47.279Z,77.16
2022-11-27T02:05:20.726Z,77.13
2022-11-27T02:07:50.342Z,77.03
2022-11-27T02:10:18.564Z,77.00
2022-11-27T02:13:06.656Z,76.86
2022-11-27T02:16:02.308Z,76.83
2022-11-27T02:18:44.286Z,76.69
2022-11-27T02:21:38.476Z,76.56
2022-11-27T02:24:49.225Z,76.74
2022-11-27T02:27:48.287Z,76.64
2022-11-27T02:30:17.427Z,76.69
2022-11-27T02:32:58.960Z,76.75
2022-11-27T02:35:32.326Z,76.75
2022-11-27T02:38:11.144Z,76.77
2022-11-27T02:40:55.104Z,76.86
2022-11-27T02:43:33.674Z,76.90
2022-11-27T02:46:04.536Z,77.01
2022-11-27T02:48:46.229Z,77.07
2022-11-27T02:51:17.806Z,77.13
2022-11-27T02:53:57.130Z,77.24
2022-11-27T02:56:28.778Z,77.32
2022-11-27T02:59:02.003Z,77.37
2022-11-27T03:01:35.577Z,77.42
2022-11-27T03:04:11.619Z,77.41
2022-11-27T03:06:52.126Z,77.30
2022-11-27T03:09:33.734Z,77.45
2022-11-27T03:12:04.076Z,77.53
2022-11-27T03:14:33.147Z,77.75
2022-11-27T03:17:27.478Z,77.79
2022-11-27T03:20:12.328Z,77.81
2022-11-27T03:22:39.875Z,77.97
2022-11-27T03:25:08.122Z,77.93
2022-11-27T03:27:40.890Z,77.85
2022-11-27T03:30:10.799Z,77.98
2022-11-27T03:32:38.508Z,78.38
2022-11-27T03:35:09.701Z,78.35
2022-11-27T03:37:39.382Z,78.53
2022-11-27T03:40:08.805Z,78.32
2022-11-27T03:43:18.949Z,78.07
2022-11-27T03:46:12.802Z,77.94
2022-11-27T03:48:59.750Z,77.61
2022-11-27T03:51:54.235Z,77.26
2022-11-27T03:54:59.818Z,76.82
2022-11-27T03:57:36.062Z,76.84
2022-11-27T04:00:08.127Z,76.89
2022-11-27T04:02:50.056Z,76.78
2022-11-27T04:05:18.388Z,76.76
2022-11-27T04:07:46.190Z,76.70
2022-11-27T04:10:13.777Z,76.64
2022-11-27T04:12:42.313Z,76.58
2022-11-27T04:15:11.362Z,76.49
2022-11-27T04:17:39.159Z,76.53
2022-11-27T04:20:08.294Z,76.63
2022-11-27T04:22:35.815Z,76.74
2022-11-27T04:25:03.923Z,76.68
2022-11-27T04:27:32.394Z,76.85
2022-11-27T04:29:59.763Z,77.05
2022-11-27T04:32:27.312Z,77.34
2022-11-27T04:34:54.841Z,77.44
2022-11-27T04:37:22.465Z,77.61
2022-11-27T04:39:50.251Z,77.79
2022-11-27T04:42:19.389Z,77.82
2022-11-27T04:44:46.744Z,77.80
2022-11-27T04:47:14.329Z,77.97
2022-11-27T04:49:41.939Z,78.06
2022-11-27T04:52:10.546Z,78.05
2022-11-27T04:54:38.495Z,78.10
2022-11-27T04:57:06.361Z,77.90
2022-11-27T04:59:34.408Z,77.88
2022-11-27T05:02:02.075Z,78.02
2022-11-27T05:04:29.802Z,78.21
2022-11-27T05:06:57.479Z,78.05
2022-11-27T05:09:25.245Z,77.92
2022-11-27T05:11:52.918Z,77.96
2022-11-27T05:14:22.337Z,78.25
2022-11-27T05:16:56.710Z,78.31
2022-11-27T05:19:27.290Z,78.23
2022-11-27T05:21:54.912Z,78.13
2022-11-27T05:24:26.047Z,78.06
2022-11-27T05:26:55.306Z,78.04
2022-11-27T05:29:25.347Z,77.98
2022-11-27T05:31:53.416Z,77.97
2022-11-27T05:34:21.502Z,77.99
2022-11-27T05:36:48.936Z,78.00
2022-11-27T05:39:16.574Z,77.98
2022-11-27T05:41:44.205Z,77.97
2022-11-27T05:44:15.751Z,77.98
2022-11-27T05:46:43.788Z,77.94
2022-11-27T05:49:14.839Z,78.07
2022-11-27T05:51:49.135Z,78.29
2022-11-27T05:54:12.435Z,78.36
2022-11-27T05:56:39.963Z,78.46
2022-11-27T05:59:09.499Z,78.56
2022-11-27T06:01:37.142Z,78.63
